You are listening to:
YSCB App/Dep/Center - Canberra, Australian Capital Territory, Australia

YSCB 151830Z AUTO 34009KT 9999 // NCD 12/M03 Q1015 RF00.0/000.0

If stream does not start automatically press the play button